Mugan — 9HA2962 — position and weather

sailwx.info

Track history (hours):
 
Tides and Currents Weather Stations Pressure Air Temp Water Temp Dewpoint Dewpoint Depression Visibility Wind Speed Wind Dir Waves Ship Positions

Mugan

Last reported at 2017-Jan-18 19:07 UTC. Time now 2017-Jan-20 01:47 UTC.
Position N 36°30' E 014°13'.

Length 140 m; draft 4.5 m.

Type: Ship. MMSI: 256914000.

Date/timePositionNaut miles runAvg speedWind from/ knotsBaromVisibWave heightAir tempDewpointWater temp
2017-Jan-18 19:07N 36°30' E 014°13'6 8.4
2017-Jan-18 18:20N 36°29' E 014°20'7 8.1
2017-Jan-18 17:26N 36°28' E 014°29'  
2017-Jan-11 21:29N 46°23' E 030°56'8 8.7
2017-Jan-11 20:31N 46°31' E 030°55'33 8.4
2017-Jan-11 16:33N 46°36' E 031°43'7 7.1
2017-Jan-11 15:33N 46°37' E 031°53'7 6.8
2017-Jan-11 14:33N 46°44' E 031°56'2 2.3
2017-Jan-11 13:33N 46°46' E 031°56'0 0.2
2017-Jan-11 12:33N 46°46' E 031°57'0 0.0
2017-Jan-11 11:33N 46°46' E 031°57'0 0.0
2017-Jan-11 10:33N 46°46' E 031°57'0 0.0
2017-Jan-11 09:33N 46°46' E 031°57'0 0.0
2017-Jan-11 08:33N 46°46' E 031°57'0 0.0
2017-Jan-11 07:33N 46°46' E 031°57'0 0.0
2017-Jan-11 06:30N 46°46' E 031°57'0 0.0
2017-Jan-11 05:33N 46°46' E 031°57'0 0.0
2017-Jan-11 04:30N 46°46' E 031°57'0 0.0
2017-Jan-11 03:33N 46°46' E 031°57'0 0.0
2017-Jan-11 02:30N 46°46' E 031°57'0 0.0
2017-Jan-11 01:33N 46°46' E 031°57'0 0.0
2017-Jan-11 00:30N 46°46' E 031°57'0 0.0
2017-Jan-10 23:30N 46°46' E 031°57'0 0.0
2017-Jan-10 22:30N 46°46' E 031°57'0 0.0
2017-Jan-10 21:33N 46°46' E 031°57'0 0.0
2017-Jan-10 20:30N 46°46' E 031°57'0 0.0
2017-Jan-10 19:30N 46°46' E 031°57'0 0.0
2017-Jan-10 18:30N 46°46' E 031°57'0 0.0
2017-Jan-10 17:33N 46°46' E 031°57'0 0.0
2017-Jan-10 16:30N 46°46' E 031°57'0 0.0
2017-Jan-10 15:27N 46°46' E 031°57'0 0.0
2017-Jan-10 14:33N 46°46' E 031°57'0 0.0
2017-Jan-10 13:30N 46°46' E 031°57'0 0.0
2017-Jan-10 12:30N 46°46' E 031°57'0 0.0
2017-Jan-10 11:27N 46°46' E 031°57'0 0.0
2017-Jan-10 10:33N 46°46' E 031°57'0 0.0
2017-Jan-10 09:33N 46°46' E 031°57'0 0.0
2017-Jan-10 08:30N 46°46' E 031°57'0 0.0
2017-Jan-10 07:33N 46°46' E 031°57'0 0.0
2017-Jan-10 06:33N 46°46' E 031°57'0 0.0
2017-Jan-10 05:33N 46°46' E 031°57'0 0.0
2017-Jan-10 04:30N 46°46' E 031°57'0 0.0
2017-Jan-10 03:33N 46°46' E 031°57'0 0.0
2017-Jan-10 02:33N 46°46' E 031°57'2 1.9
2017-Jan-10 01:33N 46°45' E 031°54'0 0.1
2017-Jan-10 00:32N 46°45' E 031°54'0 0.0
2017-Jan-09 23:32N 46°45' E 031°54'0 0.0
2017-Jan-09 22:32N 46°45' E 031°54'0 0.0
2017-Jan-09 21:32N 46°45' E 031°54'0 0.0
2017-Jan-09 20:32N 46°45' E 031°54'0 0.0
2017-Jan-09 19:32N 46°45' E 031°54'0 0.0
2017-Jan-09 18:32N 46°45' E 031°54'0 0.0
2017-Jan-09 17:32N 46°45' E 031°54'0 0.0
2017-Jan-09 16:32N 46°45' E 031°54'0 0.0
2017-Jan-09 15:32N 46°45' E 031°54'0 0.0
2017-Jan-09 14:32N 46°45' E 031°54'0 0.0
2017-Jan-09 13:32N 46°45' E 031°54'0 0.0
2017-Jan-09 12:32N 46°45' E 031°54'0 0.0
2017-Jan-09 11:32N 46°45' E 031°54'0 0.0
2017-Jan-09 10:32N 46°45' E 031°54'0 0.0
2017-Jan-09 09:32N 46°45' E 031°54'0 0.0
2017-Jan-09 08:32N 46°45' E 031°54'0 0.0
2017-Jan-09 07:29N 46°45' E 031°54'0 0.0
2017-Jan-09 06:32N 46°45' E 031°54'0 0.0
2017-Jan-09 05:32N 46°45' E 031°54'0 0.0
2017-Jan-09 04:32N 46°45' E 031°54'0 0.0
2017-Jan-09 03:32N 46°45' E 031°54'0 0.0
2017-Jan-09 02:32N 46°45' E 031°54'0 0.0
2017-Jan-09 01:32N 46°45' E 031°54'0 0.0
2017-Jan-09 00:32N 46°45' E 031°54'0 0.0
2017-Jan-08 23:32N 46°45' E 031°54'0 0.0
2017-Jan-08 22:32N 46°45' E 031°54'0 0.0
2017-Jan-08 21:32N 46°45' E 031°54'0 0.0
2017-Jan-08 20:32N 46°45' E 031°54'0 0.0
2017-Jan-08 19:32N 46°45' E 031°54'  
Track history (hours):
 
Tides and Currents Weather Stations Pressure Air Temp Water Temp Dewpoint Dewpoint Depression Visibility Wind Speed Wind Dir Waves Ship Positions

Mugan

Last reported at 2017-Jan-18 19:07 UTC. Time now 2017-Jan-20 01:47 UTC.
Position N 36°30' E 014°13'.

Length 140 m; draft 4.5 m.

Type: Ship. MMSI: 256914000.

Date/timePositionNaut miles runAvg speedWind from/ knotsBaromVisibWave heightAir tempDewpointWater temp
2017-Jan-18 19:07N 36°30' E 014°13'6 8.4
2017-Jan-18 18:20N 36°29' E 014°20'7 8.1
2017-Jan-18 17:26N 36°28' E 014°29'  
2017-Jan-11 21:29N 46°23' E 030°56'8 8.7
2017-Jan-11 20:31N 46°31' E 030°55'33 8.4
2017-Jan-11 16:33N 46°36' E 031°43'7 7.1
2017-Jan-11 15:33N 46°37' E 031°53'7 6.8
2017-Jan-11 14:33N 46°44' E 031°56'2 2.3
2017-Jan-11 13:33N 46°46' E 031°56'0 0.2
2017-Jan-11 12:33N 46°46' E 031°57'0 0.0
2017-Jan-11 11:33N 46°46' E 031°57'0 0.0
2017-Jan-11 10:33N 46°46' E 031°57'0 0.0
2017-Jan-11 09:33N 46°46' E 031°57'0 0.0
2017-Jan-11 08:33N 46°46' E 031°57'0 0.0
2017-Jan-11 07:33N 46°46' E 031°57'0 0.0
2017-Jan-11 06:30N 46°46' E 031°57'0 0.0
2017-Jan-11 05:33N 46°46' E 031°57'0 0.0
2017-Jan-11 04:30N 46°46' E 031°57'0 0.0
2017-Jan-11 03:33N 46°46' E 031°57'0 0.0
2017-Jan-11 02:30N 46°46' E 031°57'0 0.0
2017-Jan-11 01:33N 46°46' E 031°57'0 0.0
2017-Jan-11 00:30N 46°46' E 031°57'0 0.0
2017-Jan-10 23:30N 46°46' E 031°57'0 0.0
2017-Jan-10 22:30N 46°46' E 031°57'0 0.0
2017-Jan-10 21:33N 46°46' E 031°57'0 0.0
2017-Jan-10 20:30N 46°46' E 031°57'0 0.0
2017-Jan-10 19:30N 46°46' E 031°57'0 0.0
2017-Jan-10 18:30N 46°46' E 031°57'0 0.0
2017-Jan-10 17:33N 46°46' E 031°57'0 0.0
2017-Jan-10 16:30N 46°46' E 031°57'0 0.0
2017-Jan-10 15:27N 46°46' E 031°57'0 0.0
2017-Jan-10 14:33N 46°46' E 031°57'0 0.0
2017-Jan-10 13:30N 46°46' E 031°57'0 0.0
2017-Jan-10 12:30N 46°46' E 031°57'0 0.0
2017-Jan-10 11:27N 46°46' E 031°57'0 0.0
2017-Jan-10 10:33N 46°46' E 031°57'0 0.0
2017-Jan-10 09:33N 46°46' E 031°57'0 0.0
2017-Jan-10 08:30N 46°46' E 031°57'0 0.0
2017-Jan-10 07:33N 46°46' E 031°57'0 0.0
2017-Jan-10 06:33N 46°46' E 031°57'0 0.0
2017-Jan-10 05:33N 46°46' E 031°57'0 0.0
2017-Jan-10 04:30N 46°46' E 031°57'0 0.0
2017-Jan-10 03:33N 46°46' E 031°57'0 0.0
2017-Jan-10 02:33N 46°46' E 031°57'2 1.9
2017-Jan-10 01:33N 46°45' E 031°54'0 0.1
2017-Jan-10 00:32N 46°45' E 031°54'0 0.0
2017-Jan-09 23:32N 46°45' E 031°54'0 0.0
2017-Jan-09 22:32N 46°45' E 031°54'0 0.0
2017-Jan-09 21:32N 46°45' E 031°54'0 0.0
2017-Jan-09 20:32N 46°45' E 031°54'0 0.0
2017-Jan-09 19:32N 46°45' E 031°54'0 0.0
2017-Jan-09 18:32N 46°45' E 031°54'0 0.0
2017-Jan-09 17:32N 46°45' E 031°54'0 0.0
2017-Jan-09 16:32N 46°45' E 031°54'0 0.0
2017-Jan-09 15:32N 46°45' E 031°54'0 0.0
2017-Jan-09 14:32N 46°45' E 031°54'0 0.0
2017-Jan-09 13:32N 46°45' E 031°54'0 0.0
2017-Jan-09 12:32N 46°45' E 031°54'0 0.0
2017-Jan-09 11:32N 46°45' E 031°54'0 0.0
2017-Jan-09 10:32N 46°45' E 031°54'0 0.0
2017-Jan-09 09:32N 46°45' E 031°54'0 0.0
2017-Jan-09 08:32N 46°45' E 031°54'0 0.0
2017-Jan-09 07:29N 46°45' E 031°54'0 0.0
2017-Jan-09 06:32N 46°45' E 031°54'0 0.0
2017-Jan-09 05:32N 46°45' E 031°54'0 0.0
2017-Jan-09 04:32N 46°45' E 031°54'0 0.0
2017-Jan-09 03:32N 46°45' E 031°54'0 0.0
2017-Jan-09 02:32N 46°45' E 031°54'0 0.0
2017-Jan-09 01:32N 46°45' E 031°54'0 0.0
2017-Jan-09 00:32N 46°45' E 031°54'0 0.0
2017-Jan-08 23:32N 46°45' E 031°54'0 0.0
2017-Jan-08 22:32N 46°45' E 031°54'0 0.0
2017-Jan-08 21:32N 46°45' E 031°54'0 0.0
2017-Jan-08 20:32N 46°45' E 031°54'0 0.0
2017-Jan-08 19:32N 46°45' E 031°54'  

Dump ship's entire track history